Terminal Aerodrome Forecast
Issued by NWS Sterling, VA

Current Version | Previous Version | Text Only | Print | Product List | Glossary On
Versions: 1 2 3 4 5 6 7 8 9 10 11 12 13 14 15 16 17 18
000
FTUS41 KLWX 300500
TAFCHO
TAF
KCHO 300521Z 3006/3106 00000KT 1/2SM FG OVC001
     FM301100 00000KT 1/2SM FG SCT001
     FM301400 VRB03KT 3SM BR FEW130
     FM301500 34005KT P6SM FEW250
     FM301800 34004KT P6SM FEW040
     FM310400 00000KT P6SM SCT040=

USA.gov is the U.S. government's official web portal to all federal, state and local government web resources and services.